Observation data for Silverton on 08/13/2019      Previous  Date       Current Mesonet Observations  Soil Data  Daily Summary Page  Observations in Plain Language
KSVS 130500Z 03019G24KT 24/17 A3001 RMK A01 T02420168  RH  066%=      5-min Rain = 0
KSVS 130505Z 02016G26KT 24/17 A3002 RMK A01 T02410167  RH  066%=      5-min Rain = 0
KSVS 130510Z 02017G26KT 24/17 A3001 RMK A01 T02390167  RH  067%=      5-min Rain = 0
KSVS 130515Z 02019G24KT 24/17 A3001 RMK A01 T02390167  RH  067%=      5-min Rain = 0
KSVS 130520Z 03020G27KT 24/17 A3001 RMK A01 T02380167  RH  068%=      5-min Rain = 0
KSVS 130525Z 03020G25KT 24/17 A3001 RMK A01 T02370168  RH  068%=      5-min Rain = 0
KSVS 130530Z 03018KT 24/17 A3001 RMK A01 T02350169  RH  070%=      5-min Rain = 0
KSVS 130535Z 03018G23KT 23/17 A3001 RMK A01 T02330170  RH  071%=      5-min Rain = 0
KSVS 130540Z 03017G22KT 23/17 A3001 RMK A01 T02310171  RH  072%=      5-min Rain = 0
KSVS 130545Z 03019G25KT 23/17 A3002 RMK A01 T02280171  RH  074%=      5-min Rain = 0
KSVS 130550Z 03020G26KT 23/17 A3002 RMK A01 T02250171  RH  075%=      5-min Rain = 0
KSVS 130555Z 03019G25KT 22/17 A3002 RMK A01 T02220173  RH  078%=      5-min Rain = 0
KSVS 130600Z 03019KT 22/17 A3002 RMK A01 T02200174  RH  079%=      5-min Rain = 0
KSVS 130605Z 04019KT 22/18 A3002 RMK A01 T02190175  RH  080%=      5-min Rain = 0
KSVS 130610Z 03019G25KT 22/18 A3002 RMK A01 T02180176  RH  081%=      5-min Rain = 0
KSVS 130615Z 04020KT 22/18 A3002 RMK A01 T02160177  RH  083%=      5-min Rain = 0
KSVS 130620Z 04018G24KT 22/18 A3002 RMK A01 T02150177  RH  084%=      5-min Rain = 0
KSVS 130625Z 04017G23KT 21/18 A3002 RMK A01 T02140178  RH  084%=      5-min Rain = 0
KSVS 130630Z 04016KT 22/18 A3002 RMK A01 T02150178  RH  084%=      5-min Rain = 0
KSVS 130635Z 05016KT 22/18 A3002 RMK A01 T02150177  RH  083%=      5-min Rain = 0
KSVS 130640Z 05015G21KT 22/18 A3002 RMK A01 T02160177  RH  083%=      5-min Rain = 0
KSVS 130645Z 05014G19KT 22/18 A3002 RMK A01 T02160177  RH  083%=      5-min Rain = 0
KSVS 130650Z 05014KT 22/18 A3001 RMK A01 T02160177  RH  082%=      5-min Rain = 0
KSVS 130655Z 06014G19KT 22/18 A3001 RMK A01 T02170176  RH  082%=      5-min Rain = 0
KSVS 130700Z 06014KT 22/18 A3001 RMK A01 T02170176  RH  081%=      5-min Rain = 0
KSVS 130705Z 05014KT 22/18 A3001 RMK A01 T02180176  RH  081%=      5-min Rain = 0
KSVS 130710Z 05013KT 22/18 A3001 RMK A01 T02180175  RH  080%=      5-min Rain = 0
KSVS 130715Z 05014G19KT 22/18 A3001 RMK A01 T02190175  RH  080%=      5-min Rain = 0
KSVS 130720Z 05013KT 22/17 A3001 RMK A01 T02190174  RH  080%=      5-min Rain = 0
KSVS 130725Z 06014KT 22/17 A30 RMK A01 T02190174  RH  080%=      5-min Rain = 0
KSVS 130730Z 06013KT 22/17 A30 RMK A01 T02190174  RH  080%=      5-min Rain = 0
KSVS 130735Z 06014G19KT 22/17 A30 RMK A01 T02190174  RH  080%=      5-min Rain = 0
KSVS 130740Z 06014G19KT 22/17 A30 RMK A01 T02190174  RH  079%=      5-min Rain = 0
KSVS 130745Z 06015KT 22/17 A3001 RMK A01 T02200174  RH  079%=      5-min Rain = 0
KSVS 130750Z 06015G20KT 22/17 A3001 RMK A01 T02190174  RH  080%=      5-min Rain = 0
KSVS 130755Z 06015KT 22/18 A3001 RMK A01 T02190175  RH  080%=      5-min Rain = 0
KSVS 130800Z 06015G20KT 22/18 A3001 RMK A01 T02180175  RH  080%=      5-min Rain = 0
KSVS 130805Z 07015G20KT 22/18 A3001 RMK A01 T02180175  RH  081%=      5-min Rain = 0
KSVS 130810Z 07015G20KT 22/18 A3001 RMK A01 T02180175  RH  081%=      5-min Rain = 0
KSVS 130815Z 07014G21KT 22/18 A3001 RMK A01 T02180175  RH  081%=      5-min Rain = 0
KSVS 130820Z 07014G19KT 22/18 A3001 RMK A01 T02170175  RH  081%=      5-min Rain = 0
KSVS 130825Z 07013KT 22/18 A3001 RMK A01 T02160176  RH  082%=      5-min Rain = 0
KSVS 130830Z 07014KT 22/18 A3001 RMK A01 T02160176  RH  082%=      5-min Rain = 0
KSVS 130835Z 08013KT 22/18 A3001 RMK A01 T02160176  RH  082%=      5-min Rain = 0
KSVS 130840Z 08015KT 22/18 A3001 RMK A01 T02170176  RH  082%=      5-min Rain = 0
KSVS 130845Z 07013KT 22/18 A3001 RMK A01 T02170176  RH  081%=      5-min Rain = 0
KSVS 130850Z 08014G19KT 22/18 A3001 RMK A01 T02170175  RH  081%=      5-min Rain = 0
KSVS 130855Z 08015KT 22/18 A3001 RMK A01 T02170176  RH  082%=      5-min Rain = 0
KSVS 130900Z 08013KT 22/18 A3001 RMK A01 T02160176  RH  082%=      5-min Rain = 0
KSVS 130905Z 08013KT 22/18 A3002 RMK A01 T02160177  RH  082%=      5-min Rain = 0
KSVS 130910Z 07013G19KT 22/18 A3002 RMK A01 T02160177  RH  083%=      5-min Rain = 0
KSVS 130915Z 07012G17KT 22/18 A3002 RMK A01 T02150178  RH  083%=      5-min Rain = 0
KSVS 130920Z 07012G18KT 22/18 A3003 RMK A01 T02150178  RH  084%=      5-min Rain = 0
KSVS 130925Z 07013G18KT 22/18 A3003 RMK A01 T02150178  RH  084%=      5-min Rain = 0
KSVS 130930Z 08013KT 21/18 A3002 RMK A01 T02140179  RH  085%=      5-min Rain = 0
KSVS 130935Z 08014G19KT 21/18 A3002 RMK A01 T02140179  RH  085%=      5-min Rain = 0
KSVS 130940Z 08014KT 21/18 A3002 RMK A01 T02140179  RH  085%=      5-min Rain = 0
KSVS 130945Z 09015KT 21/18 A3002 RMK A01 T02140179  RH  084%=      5-min Rain = 0
KSVS 130950Z 09012G17KT 21/18 A3002 RMK A01 T02140178  RH  084%=      5-min Rain = 0
KSVS 130955Z 09011G16KT 21/18 A3001 RMK A01 T02140178  RH  084%=      5-min Rain = 0
KSVS 131000Z 09012KT 22/18 A3001 RMK A01 T02150177  RH  083%=      5-min Rain = 0
KSVS 131005Z 09011KT 22/18 A3001 RMK A01 T02160177  RH  083%=      5-min Rain = 0
KSVS 131010Z 10013KT 22/18 A3001 RMK A01 T02150177  RH  083%=      5-min Rain = 0
KSVS 131015Z 10011G17KT 21/18 A3001 RMK A01 T02140177  RH  084%=      5-min Rain = 0
KSVS 131020Z 10010KT 21/18 A3001 RMK A01 T02130177  RH  085%=      5-min Rain = 0
KSVS 131025Z 10010KT 21/18 A3001 RMK A01 T02120177  RH  085%=      5-min Rain = 0
KSVS 131030Z 10010KT 21/18 A3001 RMK A01 T02120177  RH  085%=      5-min Rain = 0
KSVS 131035Z 10010KT 21/18 A3001 RMK A01 T02120177  RH  085%=      5-min Rain = 0
KSVS 131040Z 11009KT 21/18 A3001 RMK A01 T02110177  RH  085%=      5-min Rain = 0
KSVS 131045Z 10008KT 21/18 A3001 RMK A01 T02100177  RH  086%=      5-min Rain = 0
KSVS 131050Z 10008KT 21/18 A3002 RMK A01 T02110177  RH  086%=      5-min Rain = 0
KSVS 131055Z 09007KT 21/18 A3002 RMK A01 T02110177  RH  086%=      5-min Rain = 0
KSVS 131100Z 08007KT 21/18 A3002 RMK A01 T02100178  RH  086%=      5-min Rain = 0
KSVS 131105Z 09007KT 21/18 A3002 RMK A01 T02090178  RH  086%=      5-min Rain = 0
KSVS 131110Z 10008KT 21/18 A3002 RMK A01 T02100178  RH  086%=      5-min Rain = 0
KSVS 131115Z 09007KT 21/18 A3002 RMK A01 T02100178  RH  086%=      5-min Rain = 0
KSVS 131120Z 09006KT 21/18 A3003 RMK A01 T02100178  RH  086%=      5-min Rain = 0
KSVS 131125Z 10006KT 21/18 A3003 RMK A01 T02090178  RH  086%=      5-min Rain = 0
KSVS 131130Z 10008KT 21/18 A3003 RMK A01 T02100178  RH  086%=      5-min Rain = 0
KSVS 131135Z 11007KT 21/18 A3003 RMK A01 T02110178  RH  086%=      5-min Rain = 0
KSVS 131140Z 11008KT 21/18 A3003 RMK A01 T02110178  RH  086%=      5-min Rain = 0
KSVS 131145Z 10007KT 21/18 A3003 RMK A01 T02100178  RH  086%=      5-min Rain = 0
KSVS 131150Z 10006KT 21/18 A3004 RMK A01 T02090177  RH  086%=      5-min Rain = 0
KSVS 131155Z 11006KT 21/18 A3004 RMK A01 T02080177  RH  087%=      5-min Rain = 0
KSVS 131200Z 10006KT 21/18 A3004 RMK A01 T02080177  RH  087%=      5-min Rain = 0
KSVS 131205Z 10006KT 21/18 A3004 RMK A01 T02080177  RH  087%=      5-min Rain = 0
KSVS 131210Z 10005KT 21/18 A3004 RMK A01 T02080176  RH  086%=      5-min Rain = 0
KSVS 131215Z 09006KT 21/18 A3004 RMK A01 T02090176  RH  086%=      5-min Rain = 0
KSVS 131220Z 10006KT 21/18 A3005 RMK A01 T02100176  RH  085%=      5-min Rain = 0
KSVS 131225Z 10006KT 21/18 A3005 RMK A01 T02110176  RH  084%=      5-min Rain = 0
KSVS 131230Z 11006KT 21/18 A3005 RMK A01 T02130175  RH  084%=      5-min Rain = 0
KSVS 131235Z 11004KT 21/18 A3005 RMK A01 T02140175  RH  083%=      5-min Rain = 0
KSVS 131240Z 11004KT 22/18 A3006 RMK A01 T02160175  RH  082%=      5-min Rain = 0
KSVS 131245Z 11005KT 22/18 A3006 RMK A01 T02180175  RH  080%=      5-min Rain = 0
KSVS 131250Z 10005KT 22/18 A3006 RMK A01 T02210175  RH  079%=      5-min Rain = 0
KSVS 131255Z 09006KT 22/17 A3006 RMK A01 T02240174  RH  077%=      5-min Rain = 0
KSVS 131300Z 09006KT 23/17 A3006 RMK A01 T02270172  RH  075%=      5-min Rain = 0
KSVS 131305Z 08006KT 23/17 A3006 RMK A01 T02290172  RH  074%=      5-min Rain = 0
KSVS 131310Z 09006KT 23/17 A3006 RMK A01 T02300172  RH  074%=      5-min Rain = 0
KSVS 131315Z 07007KT 23/17 A3007 RMK A01 T02330173  RH  073%=      5-min Rain = 0
KSVS 131320Z 07007KT 23/17 A3007 RMK A01 T02330173  RH  073%=      5-min Rain = 0
KSVS 131325Z 06007KT 23/17 A3007 RMK A01 T02340174  RH  073%=      5-min Rain = 0
KSVS 131330Z 07008KT 23/17 A3008 RMK A01 T02340174  RH  073%=      5-min Rain = 0
KSVS 131335Z 07007KT 24/18 A3008 RMK A01 T02360175  RH  072%=      5-min Rain = 0
KSVS 131340Z 06008KT 24/18 A3008 RMK A01 T02370176  RH  072%=      5-min Rain = 0
KSVS 131345Z 05008KT 24/18 A3008 RMK A01 T02360177  RH  073%=      5-min Rain = 0
KSVS 131350Z 05008KT 24/18 A3008 RMK A01 T02380178  RH  073%=      5-min Rain = 0
KSVS 131355Z 04008KT 24/18 A3008 RMK A01 T02390178  RH  072%=      5-min Rain = 0
KSVS 131400Z 06009KT 24/18 A3008 RMK A01 T02410177  RH  071%=      5-min Rain = 0
KSVS 131405Z 05008KT 24/18 A3009 RMK A01 T02420177  RH  070%=      5-min Rain = 0
KSVS 131410Z 03009KT 24/18 A3009 RMK A01 T02420178  RH  071%=      5-min Rain = 0
KSVS 131415Z 03008KT 24/18 A3009 RMK A01 T02440178  RH  070%=      5-min Rain = 0
KSVS 131420Z 03008KT 25/18 A3009 RMK A01 T02460179  RH  070%=      5-min Rain = 0
KSVS 131425Z 03009KT 25/18 A3009 RMK A01 T02470176  RH  068%=      5-min Rain = 0
KSVS 131430Z 04009KT 25/17 A3009 RMK A01 T02470172  RH  066%=      5-min Rain = 0
KSVS 131435Z 03008KT 25/17 A3009 RMK A01 T02510173  RH  065%=      5-min Rain = 0
KSVS 131440Z 03008KT 26/17 A3009 RMK A01 T02550172  RH  063%=      5-min Rain = 0
KSVS 131445Z 02008KT 26/17 A3009 RMK A01 T02590172  RH  062%=      5-min Rain = 0
KSVS 131450Z 04007KT 26/17 A3009 RMK A01 T02590171  RH  061%=      5-min Rain = 0
KSVS 131455Z 04008KT 26/17 A3009 RMK A01 T02640172  RH  060%=      5-min Rain = 0
KSVS 131500Z 04007KT 27/17 A301 RMK A01 T02650172  RH  060%=      5-min Rain = 0
KSVS 131505Z 05008KT 27/17 A301 RMK A01 T02660172  RH  059%=      5-min Rain = 0
KSVS 131510Z 04008KT 27/17 A301 RMK A01 T02700173  RH  058%=      5-min Rain = 0
KSVS 131515Z 04008KT 27/17 A301 RMK A01 T02680171  RH  058%=      5-min Rain = 0
KSVS 131520Z 04008KT 27/17 A301 RMK A01 T02690170  RH  057%=      5-min Rain = 0
KSVS 131525Z 03008KT 27/17 A301 RMK A01 T02720169  RH  056%=      5-min Rain = 0
KSVS 131530Z 05008KT 27/17 A301 RMK A01 T02740169  RH  055%=      5-min Rain = 0
KSVS 131535Z 04008G14KT 27/17 A301 RMK A01 T02730170  RH  056%=      5-min Rain = 0
KSVS 131540Z 04010KT 28/17 A301 RMK A01 T02780169  RH  054%=      5-min Rain = 0
KSVS 131545Z 04009G15KT 28/17 A301 RMK A01 T02780169  RH  054%=      5-min Rain = 0
KSVS 131550Z 03010KT 28/17 A301 RMK A01 T02790168  RH  053%=      5-min Rain = 0
KSVS 131555Z 04010KT 28/17 A3011 RMK A01 T02820167  RH  052%=      5-min Rain = 0
KSVS 131600Z 05008KT 28/17 A3011 RMK A01 T02840169  RH  052%=      5-min Rain = 0
KSVS 131605Z 06010KT 29/17 A3011 RMK A01 T02850166  RH  051%=      5-min Rain = 0
KSVS 131610Z 05009G14KT 29/16 A3011 RMK A01 T02850164  RH  050%=      5-min Rain = 0
KSVS 131615Z 05009KT 29/17 A3011 RMK A01 T02880165  RH  050%=      5-min Rain = 0
KSVS 131620Z 03008G13KT 29/17 A3011 RMK A01 T02920165  RH  048%=      5-min Rain = 0
KSVS 131625Z 05008KT 30/16 A3011 RMK A01 T02980163  RH  046%=      5-min Rain = 0
KSVS 131630Z 04010KT 30/16 A3011 RMK A01 T02950163  RH  047%=      5-min Rain = 0
KSVS 131635Z 04011G16KT 30/16 A3011 RMK A01 T02970163  RH  046%=      5-min Rain = 0
KSVS 131640Z 07010G15KT 30/16 A3011 RMK A01 T02980159  RH  045%=      5-min Rain = 0
KSVS 131645Z 05010KT 30/16 A3011 RMK A01 T02970157  RH  045%=      5-min Rain = 0
KSVS 131650Z 07010KT 30/16 A3011 RMK A01 T03030159  RH  044%=      5-min Rain = 0
KSVS 131655Z 06010G17KT 30/16 A3011 RMK A01 T03010156  RH  043%=      5-min Rain = 0
KSVS 131700Z 08010G15KT 30/16 A3011 RMK A01 T03030155  RH  043%=      5-min Rain = 0
KSVS 131705Z 07011G17KT 31/15 A3011 RMK A01 T03060153  RH  041%=      5-min Rain = 0
KSVS 131710Z 08011KT 31/15 A3011 RMK A01 T03070153  RH  041%=      5-min Rain = 0
KSVS 131715Z 07011KT 31/15 A3011 RMK A01 T03060153  RH  041%=      5-min Rain = 0
KSVS 131720Z 08009KT 31/15 A3011 RMK A01 T03070154  RH  041%=      5-min Rain = 0
KSVS 131725Z 06012KT 31/15 A3011 RMK A01 T03080153  RH  041%=      5-min Rain = 0
KSVS 131730Z 06010G15KT 31/15 A3011 RMK A01 T03060153  RH  041%=      5-min Rain = 0
KSVS 131735Z 06009KT 31/16 A3011 RMK A01 T03090155  RH  041%=      5-min Rain = 0
KSVS 131740Z 08011KT 31/16 A3011 RMK A01 T03120157  RH  041%=      5-min Rain = 0
KSVS 131745Z 06009KT 31/16 A3011 RMK A01 T03100158  RH  042%=      5-min Rain = 0
KSVS 131750Z 07009G15KT 32/16 A301 RMK A01 T03160159  RH  041%=      5-min Rain = 0
KSVS 131755Z 06009G15KT 31/16 A301 RMK A01 T03140158  RH  041%=      5-min Rain = 0
KSVS 131800Z 07012G20KT 32/16 A301 RMK A01 T03170156  RH  040%=      5-min Rain = 0
KSVS 131805Z 07009G14KT 32/16 A301 RMK A01 T03170157  RH  040%=      5-min Rain = 0
KSVS 131810Z 06010G15KT 32/16 A301 RMK A01 T03200158  RH  039%=      5-min Rain = 0
KSVS 131815Z 05011KT 32/16 A301 RMK A01 T03160158  RH  040%=      5-min Rain = 0
KSVS 131820Z 07009KT 32/16 A301 RMK A01 T03210158  RH  039%=      5-min Rain = 0
KSVS 131825Z 09006KT 31/15 A301 RMK A01 T03130151  RH  039%=      5-min Rain = 0
KSVS 131830Z 05010G16KT 32/16 A301 RMK A01 T03230156  RH  038%=      5-min Rain = 0
KSVS 131835Z 08010G18KT 33/16 A301 RMK A01 T03260155  RH  037%=      5-min Rain = 0
KSVS 131840Z 10011KT 32/16 A301 RMK A01 T03230158  RH  039%=      5-min Rain = 0
KSVS 131845Z 09010KT 32/16 A301 RMK A01 T03180160  RH  041%=      5-min Rain = 0
KSVS 131850Z 07010G16KT 32/16 A301 RMK A01 T03200163  RH  041%=      5-min Rain = 0
KSVS 131855Z 06010G16KT 31/16 A301 RMK A01 T03090163  RH  044%=      5-min Rain = 0
KSVS 131900Z 06009G15KT 31/16 A301 RMK A01 T03090164  RH  044%=      5-min Rain = 0
KSVS 131905Z 05011G16KT 32/16 A301 RMK A01 T03190162  RH  041%=      5-min Rain = 0
KSVS 131910Z 08010G16KT 32/16 A301 RMK A01 T03200161  RH  040%=      5-min Rain = 0
KSVS 131915Z 06009G16KT 33/16 A301 RMK A01 T03310159  RH  037%=      5-min Rain = 0
KSVS 131920Z 04009G16KT 32/16 A301 RMK A01 T03240158  RH  039%=      5-min Rain = 0
KSVS 131925Z 08010KT 32/15 A301 RMK A01 T03160152  RH  039%=      5-min Rain = 0
KSVS 131930Z 06010G18KT 33/16 A301 RMK A01 T03250158  RH  038%=      5-min Rain = 0
KSVS 131935Z 05011G17KT 33/16 A301 RMK A01 T03330158  RH  037%=      5-min Rain = 0
KSVS 131940Z 07009G16KT 33/16 A301 RMK A01 T03330156  RH  036%=      5-min Rain = 0
KSVS 131945Z 06009G18KT 32/15 A3009 RMK A01 T03230152  RH  037%=      5-min Rain = 0
KSVS 131950Z 05010G18KT 33/15 A3009 RMK A01 T03290150  RH  036%=      5-min Rain = 0
KSVS 131955Z 06013G22KT 33/16 A3009 RMK A01 T03270155  RH  037%=      5-min Rain = 0
KSVS 132000Z 05012G19KT 32/15 A3009 RMK A01 T03230149  RH  036%=      5-min Rain = 0
KSVS 132005Z 06012G19KT 33/16 A3009 RMK A01 T03310155  RH  036%=      5-min Rain = 0
KSVS 132010Z 06011G17KT 33/15 A3009 RMK A01 T03280147  RH  035%=      5-min Rain = 0
KSVS 132015Z 10011KT 33/14 A3009 RMK A01 T03320144  RH  034%=      5-min Rain = 0
KSVS 132020Z 09008KT 33/15 A3009 RMK A01 T03270151  RH  036%=      5-min Rain = 0
KSVS 132025Z 07012G18KT 33/15 A3009 RMK A01 T03340149  RH  035%=      5-min Rain = 0
KSVS 132030Z 07011G17KT 33/15 A3009 RMK A01 T03340145  RH  033%=      5-min Rain = 0
KSVS 132035Z 07010G17KT 33/14 A3009 RMK A01 T03320141  RH  033%=      5-min Rain = 0
KSVS 132040Z 05011G16KT 33/14 A3008 RMK A01 T03280141  RH  034%=      5-min Rain = 0
KSVS 132045Z 07011KT 33/14 A3008 RMK A01 T03330140  RH  033%=      5-min Rain = 0
KSVS 132050Z 06007KT 33/14 A3008 RMK A01 T03260143  RH  035%=      5-min Rain = 0
KSVS 132055Z 08011G16KT 33/14 A3008 RMK A01 T03320138  RH  032%=      5-min Rain = 0
KSVS 132100Z 09007G14KT 33/14 A3008 RMK A01 T03290136  RH  032%=      5-min Rain = 0
KSVS 132105Z 08011G18KT 33/14 A3008 RMK A01 T03310139  RH  033%=      5-min Rain = 0
KSVS 132110Z 06011KT 33/14 A3008 RMK A01 T03310138  RH  032%=      5-min Rain = 0
KSVS 132115Z 08008G17KT 33/14 A3008 RMK A01 T03330140  RH  033%=      5-min Rain = 0
KSVS 132120Z 06008G13KT 33/14 A3007 RMK A01 T03290138  RH  033%=      5-min Rain = 0
KSVS 132125Z 09009G14KT 33/15 A3007 RMK A01 T03330146  RH  034%=      5-min Rain = 0
KSVS 132130Z 10009KT 33/14 A3007 RMK A01 T03330144  RH  034%=      5-min Rain = 0
KSVS 132135Z 08010G15KT 33/14 A3007 RMK A01 T03340141  RH  033%=      5-min Rain = 0
KSVS 132140Z 07009KT 33/15 A3007 RMK A01 T03340146  RH  034%=      5-min Rain = 0
KSVS 132145Z 05005G13KT 33/15 A3007 RMK A01 T03280145  RH  035%=      5-min Rain = 0
KSVS 132150Z 09011KT 33/15 A3007 RMK A01 T03320152  RH  036%=      5-min Rain = 0
KSVS 132155Z 10010G18KT 33/15 A3006 RMK A01 T03320153  RH  036%=      5-min Rain = 0
KSVS 132200Z 08011G17KT 33/15 A3006 RMK A01 T03330152  RH  035%=      5-min Rain = 0
KSVS 132205Z 08010G15KT 33/15 A3006 RMK A01 T03290148  RH  035%=      5-min Rain = 0
KSVS 132210Z 08009KT 33/15 A3006 RMK A01 T03310146  RH  034%=      5-min Rain = 0
KSVS 132215Z 06007G14KT 33/15 A3006 RMK A01 T03280145  RH  035%=      5-min Rain = 0
KSVS 132220Z 07009G14KT 34/15 A3006 RMK A01 T03350152  RH  035%=      5-min Rain = 0
KSVS 132225Z 09010KT 33/15 A3006 RMK A01 T03320152  RH  035%=      5-min Rain = 0
KSVS 132230Z 10007G13KT 33/15 A3006 RMK A01 T03260150  RH  036%=      5-min Rain = 0
KSVS 132235Z 08010KT 33/16 A3006 RMK A01 T03280155  RH  037%=      5-min Rain = 0
KSVS 132240Z 07006G13KT 33/15 A3006 RMK A01 T03260153  RH  037%=      5-min Rain = 0
KSVS 132245Z 07009G15KT 33/15 A3006 RMK A01 T03260150  RH  036%=      5-min Rain = 0
KSVS 132250Z 07008KT 33/16 A3006 RMK A01 T03260155  RH  037%=      5-min Rain = 0
KSVS 132255Z 08008G13KT 32/15 A3006 RMK A01 T03230154  RH  038%=      5-min Rain = 0
KSVS 132300Z 07009KT 32/15 A3006 RMK A01 T03230154  RH  038%=      5-min Rain = 0
KSVS 132305Z 09006G11KT 32/15 A3006 RMK A01 T03240154  RH  037%=      5-min Rain = 0
KSVS 132310Z 08008G13KT 33/15 A3006 RMK A01 T03270153  RH  037%=      5-min Rain = 0
KSVS 132315Z 10009G14KT 33/16 A3006 RMK A01 T03250156  RH  038%=      5-min Rain = 0
KSVS 132320Z 07009KT 32/16 A3006 RMK A01 T03200155  RH  039%=      5-min Rain = 0
KSVS 132325Z 07011KT 32/16 A3006 RMK A01 T03220155  RH  038%=      5-min Rain = 0
KSVS 132330Z 09011G16KT 32/16 A3006 RMK A01 T03220156  RH  039%=      5-min Rain = 0
KSVS 132335Z 10008KT 32/16 A3006 RMK A01 T03170158  RH  040%=      5-min Rain = 0
KSVS 132340Z 09009G14KT 32/16 A3006 RMK A01 T03170158  RH  040%=      5-min Rain = 0
KSVS 132345Z 08009KT 32/16 A3006 RMK A01 T03150159  RH  041%=      5-min Rain = 0
KSVS 132350Z 08010KT 32/15 A3006 RMK A01 T03170154  RH  039%=      5-min Rain = 0
KSVS 132355Z 09009KT 32/16 A3006 RMK A01 T03160155  RH  040%=      5-min Rain = 0
KSVS 140000Z 08009KT 32/16 A3006 RMK A01 T03160157  RH  040%=      5-min Rain = 0
KSVS 140005Z 08009G15KT 31/16 A3006 RMK A01 T03130157  RH  041%=      5-min Rain = 0
KSVS 140010Z 08008G13KT 31/16 A3006 RMK A01 T03130157  RH  041%=      5-min Rain = 0
KSVS 140015Z 08008KT 31/16 A3006 RMK A01 T03110158  RH  041%=      5-min Rain = 0
KSVS 140020Z 07010KT 31/16 A3006 RMK A01 T03100159  RH  042%=      5-min Rain = 0
KSVS 140025Z 08008KT 31/16 A3006 RMK A01 T03080161  RH  043%=      5-min Rain = 0
KSVS 140030Z 07010KT 31/16 A3006 RMK A01 T03060160  RH  043%=      5-min Rain = 0
KSVS 140035Z 07009KT 31/16 A3006 RMK A01 T03050159  RH  043%=      5-min Rain = 0
KSVS 140040Z 09009KT 30/16 A3007 RMK A01 T03040159  RH  044%=      5-min Rain = 0
KSVS 140045Z 08010KT 30/16 A3007 RMK A01 T03020159  RH  044%=      5-min Rain = 0
KSVS 140050Z 07009G14KT 30/16 A3007 RMK A01 T03010158  RH  044%=      5-min Rain = 0
KSVS 140055Z 07009KT 30/16 A3007 RMK A01 T02990158  RH  045%=      5-min Rain = 0
KSVS 140100Z 07010KT 30/16 A3007 RMK A01 T02970159  RH  045%=      5-min Rain = 0
KSVS 140105Z 07010KT 29/16 A3007 RMK A01 T02940159  RH  046%=      5-min Rain = 0
KSVS 140110Z 07010KT 29/16 A3008 RMK A01 T02930160  RH  047%=      5-min Rain = 0
KSVS 140115Z 07010KT 29/16 A3008 RMK A01 T02910161  RH  048%=      5-min Rain = 0
KSVS 140120Z 07009KT 29/16 A3008 RMK A01 T02890161  RH  048%=      5-min Rain = 0
KSVS 140125Z 07008KT 29/16 A3008 RMK A01 T02870161  RH  049%=      5-min Rain = 0
KSVS 140130Z 08008KT 29/16 A3008 RMK A01 T02850161  RH  049%=      5-min Rain = 0
KSVS 140135Z 07009KT 28/16 A3008 RMK A01 T02830162  RH  050%=      5-min Rain = 0
KSVS 140140Z 07008KT 28/16 A3009 RMK A01 T02810161  RH  050%=      5-min Rain = 0
KSVS 140145Z 06008KT 28/16 A3009 RMK A01 T02810162  RH  051%=      5-min Rain = 0
KSVS 140150Z 06008KT 28/16 A3009 RMK A01 T02790163  RH  052%=      5-min Rain = 0
KSVS 140155Z 06009KT 28/16 A301 RMK A01 T02770164  RH  052%=      5-min Rain = 0
KSVS 140200Z 07008KT 28/16 A301 RMK A01 T02750163  RH  053%=      5-min Rain = 0
KSVS 140205Z 07008KT 27/16 A301 RMK A01 T02740163  RH  053%=      5-min Rain = 0
KSVS 140210Z 07007KT 27/16 A301 RMK A01 T02720162  RH  053%=      5-min Rain = 0
KSVS 140215Z 08007KT 27/16 A301 RMK A01 T02700162  RH  054%=      5-min Rain = 0
KSVS 140220Z 07007KT 27/16 A301 RMK A01 T02670161  RH  055%=      5-min Rain = 0
KSVS 140225Z 06007KT 27/16 A3011 RMK A01 T02680160  RH  054%=      5-min Rain = 0
KSVS 140230Z 06007KT 27/16 A3012 RMK A01 T02670160  RH  054%=      5-min Rain = 0
KSVS 140235Z 07007KT 26/16 A3012 RMK A01 T02640160  RH  055%=      5-min Rain = 0
KSVS 140240Z 07006KT 26/16 A3012 RMK A01 T02630160  RH  056%=      5-min Rain = 0
KSVS 140245Z 06007KT 26/16 A3013 RMK A01 T02620160  RH  056%=      5-min Rain = 0
KSVS 140250Z 07006KT 26/16 A3013 RMK A01 T02610160  RH  057%=      5-min Rain = 0
KSVS 140255Z 07006KT 26/16 A3013 RMK A01 T02590161  RH  057%=      5-min Rain = 0
KSVS 140300Z 07006KT 26/16 A3014 RMK A01 T02590162  RH  058%=      5-min Rain = 0
KSVS 140305Z 07007KT 26/16 A3014 RMK A01 T02590163  RH  058%=      5-min Rain = 0
KSVS 140310Z 07007KT 26/16 A3014 RMK A01 T02580163  RH  059%=      5-min Rain = 0
KSVS 140315Z 08008KT 26/17 A3014 RMK A01 T02600165  RH  059%=      5-min Rain = 0
KSVS 140320Z 08008KT 26/17 A3014 RMK A01 T02610166  RH  059%=      5-min Rain = 0
KSVS 140325Z 08008G13KT 26/17 A3014 RMK A01 T02610167  RH  059%=      5-min Rain = 0
KSVS 140330Z 08009KT 26/17 A3014 RMK A01 T02620168  RH  059%=      5-min Rain = 0
KSVS 140335Z 08010KT 26/17 A3014 RMK A01 T02610168  RH  059%=      5-min Rain = 0
KSVS 140340Z 08010KT 26/17 A3014 RMK A01 T02620169  RH  059%=      5-min Rain = 0
KSVS 140345Z 08009KT 26/17 A3014 RMK A01 T02600169  RH  060%=      5-min Rain = 0
KSVS 140350Z 09010KT 26/17 A3014 RMK A01 T02600169  RH  060%=      5-min Rain = 0
KSVS 140355Z 09010KT 26/17 A3014 RMK A01 T02600169  RH  060%=      5-min Rain = 0
KSVS 140400Z 09009KT 26/17 A3014 RMK A01 T02590169  RH  060%=      5-min Rain = 0
KSVS 140405Z 09008KT 26/17 A3014 RMK A01 T02560169  RH  062%=      5-min Rain = 0
KSVS 140410Z 09008KT 25/17 A3015 RMK A01 T02540170  RH  063%=      5-min Rain = 0
KSVS 140415Z 08007KT 25/17 A3015 RMK A01 T02530170  RH  063%=      5-min Rain = 0
KSVS 140420Z 08007KT 25/17 A3016 RMK A01 T02520169  RH  063%=      5-min Rain = 0
KSVS 140425Z 08008KT 25/17 A3016 RMK A01 T02520169  RH  063%=      5-min Rain = 0
KSVS 140430Z 09007KT 25/17 A3016 RMK A01 T02510169  RH  063%=      5-min Rain = 0
KSVS 140435Z 08008KT 25/17 A3015 RMK A01 T02510168  RH  063%=      5-min Rain = 0
KSVS 140440Z 08008KT 25/17 A3015 RMK A01 T02510168  RH  063%=      5-min Rain = 0
KSVS 140445Z 08009G14KT 25/17 A3015 RMK A01 T02520168  RH  063%=      5-min Rain = 0
KSVS 140450Z 09009KT 25/17 A3015 RMK A01 T02510168  RH  063%=      5-min Rain = 0
KSVS 140455Z 09009KT 25/17 A3015 RMK A01 T02500167  RH  063%=      5-min Rain = 0

Page generated in 0.0149 seconds.